sensor_id;sensor_type;location;lat;lon;timestamp;pressure;altitude;pressure_sealevel;temperature;humidity
20696;BME280;10507;52.754;13.040;2023-11-18T00:02:47;101525.84;;;4.11;100.00
20696;BME280;10507;52.754;13.040;2023-11-18T00:05:36;101532.91;;;4.08;100.00
20696;BME280;10507;52.754;13.040;2023-11-18T00:08:18;101549.63;;;4.10;100.00
20696;BME280;10507;52.754;13.040;2023-11-18T00:10:53;101566.34;;;4.13;100.00
20696;BME280;10507;52.754;13.040;2023-11-18T00:13:25;101595.38;;;4.20;100.00
20696;BME280;10507;52.754;13.040;2023-11-18T00:16:15;101590.94;;;4.20;100.00
20696;BME280;10507;52.754;13.040;2023-11-18T00:19:02;101601.44;;;4.28;100.00
20696;BME280;10507;52.754;13.040;2023-11-18T00:22:31;101616.44;;;4.29;100.00
20696;BME280;10507;52.754;13.040;2023-11-18T00:25:20;101630.44;;;4.40;100.00
20696;BME280;10507;52.754;13.040;2023-11-18T00:28:16;101642.72;;;4.46;100.00
20696;BME280;10507;52.754;13.040;2023-11-18T00:31:04;101650.59;;;4.53;100.00
20696;BME280;10507;52.754;13.040;2023-11-18T00:33:40;101661.09;;;4.64;100.00
20696;BME280;10507;52.754;13.040;2023-11-18T00:39:52;101669.78;;;4.75;100.00
20696;BME280;10507;52.754;13.040;2023-11-18T00:42:40;101665.34;;;4.77;100.00
20696;BME280;10507;52.754;13.040;2023-11-18T00:45:19;101695.25;;;4.87;100.00
20696;BME280;10507;52.754;13.040;2023-11-18T00:48:27;101654.75;;;4.79;100.00
20696;BME280;10507;52.754;13.040;2023-11-18T00:51:16;101653.88;;;4.80;100.00
20696;BME280;10507;52.754;13.040;2023-11-18T00:54:07;101650.38;;;4.78;100.00
20696;BME280;10507;52.754;13.040;2023-11-18T00:56:43;101649.47;;;4.79;100.00
20696;BME280;10507;52.754;13.040;2023-11-18T00:59:20;101659.13;;;4.85;100.00
20696;BME280;10507;52.754;13.040;2023-11-18T01:01:58;101643.28;;;4.80;100.00
20696;BME280;10507;52.754;13.040;2023-11-18T01:04:37;101637.97;;;4.82;100.00
20696;BME280;10507;52.754;13.040;2023-11-18T01:07:11;101635.34;;;4.80;100.00
20696;BME280;10507;52.754;13.040;2023-11-18T01:09:50;101630.97;;;4.76;100.00
20696;BME280;10507;52.754;13.040;2023-11-18T01:12:42;101638.91;;;4.76;100.00
20696;BME280;10507;52.754;13.040;2023-11-18T01:15:33;101663.56;;;4.81;100.00
20696;BME280;10507;52.754;13.040;2023-11-18T01:18:24;101661.81;;;4.80;100.00
20696;BME280;10507;52.754;13.040;2023-11-18T01:20:58;101668.84;;;4.83;100.00
20696;BME280;10507;52.754;13.040;2023-11-18T01:23:43;101644.22;;;4.76;100.00
20696;BME280;10507;52.754;13.040;2023-11-18T01:26:36;101674.09;;;4.86;100.00
20696;BME280;10507;52.754;13.040;2023-11-18T01:29:12;101657.38;;;4.82;100.00
20696;BME280;10507;52.754;13.040;2023-11-18T01:32:36;101670.53;;;4.88;100.00
20696;BME280;10507;52.754;13.040;2023-11-18T01:35:47;101653.78;;;4.86;100.00
20696;BME280;10507;52.754;13.040;2023-11-18T01:38:48;101659.13;;;4.85;100.00
20696;BME280;10507;52.754;13.040;2023-11-18T01:41:22;101660.84;;;4.86;100.00
20696;BME280;10507;52.754;13.040;2023-11-18T01:44:10;101645.91;;;4.83;100.00
20696;BME280;10507;52.754;13.040;2023-11-18T01:46:56;101645.94;;;4.78;100.00
20696;BME280;10507;52.754;13.040;2023-11-18T01:49:37;101660.03;;;4.81;100.00
20696;BME280;10507;52.754;13.040;2023-11-18T01:52:21;101646.00;;;4.72;100.00
20696;BME280;10507;52.754;13.040;2023-11-18T01:55:00;101656.53;;;4.78;100.00
20696;BME280;10507;52.754;13.040;2023-11-18T01:57:42;101651.31;;;4.71;100.00
20696;BME280;10507;52.754;13.040;2023-11-18T02:00:27;101653.06;;;4.70;100.00
20696;BME280;10507;52.754;13.040;2023-11-18T02:03:03;101646.09;;;4.62;100.00
20696;BME280;10507;52.754;13.040;2023-11-18T02:05:59;101662.88;;;4.59;100.00
20696;BME280;10507;52.754;13.040;2023-11-18T02:08:37;101698.13;;;4.63;100.00
20696;BME280;10507;52.754;13.040;2023-11-18T02:11:17;101715.72;;;4.67;100.00
20696;BME280;10507;52.754;13.040;2023-11-18T02:14:10;101708.69;;;4.63;100.00
20696;BME280;10507;52.754;13.040;2023-11-18T02:16:52;101711.34;;;4.63;100.00
20696;BME280;10507;52.754;13.040;2023-11-18T02:19:37;101720.16;;;4.65;100.00
20696;BME280;10507;52.754;13.040;2023-11-18T02:22:25;101726.31;;;4.64;100.00
20696;BME280;10507;52.754;13.040;2023-11-18T02:25:30;101728.94;;;4.64;100.00
20696;BME280;10507;52.754;13.040;2023-11-18T02:28:32;101754.50;;;4.71;100.00
20696;BME280;10507;52.754;13.040;2023-11-18T02:31:16;101737.75;;;4.69;100.00
20696;BME280;10507;52.754;13.040;2023-11-18T02:33:55;101756.22;;;4.73;100.00
20696;BME280;10507;52.754;13.040;2023-11-18T02:36:32;101757.09;;;4.74;100.00
20696;BME280;10507;52.754;13.040;2023-11-18T02:39:32;101753.59;;;4.70;100.00
20696;BME280;10507;52.754;13.040;2023-11-18T02:42:13;101741.31;;;4.62;100.00
20696;BME280;10507;52.754;13.040;2023-11-18T02:44:47;101743.09;;;4.59;100.00
20696;BME280;10507;52.754;13.040;2023-11-18T02:47:23;101732.56;;;4.52;100.00
20696;BME280;10507;52.754;13.040;2023-11-18T02:49:54;101742.28;;;4.51;100.00
20696;BME280;10507;52.754;13.040;2023-11-18T02:52:45;101753.72;;;4.52;100.00
20696;BME280;10507;52.754;13.040;2023-11-18T02:55:18;101742.31;;;4.47;100.00
20696;BME280;10507;52.754;13.040;2023-11-18T02:57:51;101769.63;;;4.47;100.00
20696;BME280;10507;52.754;13.040;2023-11-18T03:00:27;101775.78;;;4.48;100.00
20696;BME280;10507;52.754;13.040;2023-11-18T03:02:57;101786.38;;;4.51;100.00
20696;BME280;10507;52.754;13.040;2023-11-18T03:05:30;101789.88;;;4.51;100.00
20696;BME280;10507;52.754;13.040;2023-11-18T03:08:06;101770.53;;;4.45;100.00
20696;BME280;10507;52.754;13.040;2023-11-18T03:10:39;101808.38;;;4.56;100.00
20696;BME280;10507;52.754;13.040;2023-11-18T03:13:11;101789.00;;;4.51;100.00
20696;BME280;10507;52.754;13.040;2023-11-18T03:15:44;101807.50;;;4.54;100.00
20696;BME280;10507;52.754;13.040;2023-11-18T03:18:18;101788.09;;;4.50;100.00
20696;BME280;10507;52.754;13.040;2023-11-18T03:20:47;101796.94;;;4.49;100.00
20696;BME280;10507;52.754;13.040;2023-11-18T03:23:18;101778.47;;;4.43;100.00
20696;BME280;10507;52.754;13.040;2023-11-18T03:25:48;101784.63;;;4.44;100.00
20696;BME280;10507;52.754;13.040;2023-11-18T03:28:18;101787.31;;;4.42;100.00
20696;BME280;10507;52.754;13.040;2023-11-18T03:30:49;101800.50;;;4.44;100.00
20696;BME280;10507;52.754;13.040;2023-11-18T03:33:20;101792.59;;;4.42;100.00
20696;BME280;10507;52.754;13.040;2023-11-18T03:35:50;101804.91;;;4.42;100.00
20696;BME280;10507;52.754;13.040;2023-11-18T03:38:18;101800.53;;;4.41;100.00
20696;BME280;10507;52.754;13.040;2023-11-18T03:40:47;101794.38;;;4.38;100.00
20696;BME280;10507;52.754;13.040;2023-11-18T03:43:15;101798.78;;;4.38;100.00
20696;BME280;10507;52.754;13.040;2023-11-18T03:45:44;101785.59;;;4.35;100.00
20696;BME280;10507;52.754;13.040;2023-11-18T03:48:19;101812.88;;;4.40;100.00
20696;BME280;10507;52.754;13.040;2023-11-18T03:50:51;101783.84;;;4.31;100.00
20696;BME280;10507;52.754;13.040;2023-11-18T03:53:20;101801.44;;;4.33;100.00
20696;BME280;10507;52.754;13.040;2023-11-18T03:55:49;101814.66;;;4.32;100.00
20696;BME280;10507;52.754;13.040;2023-11-18T03:58:20;101789.19;;;4.19;100.00
20696;BME280;10507;52.754;13.040;2023-11-18T04:01:02;101777.78;;;4.10;100.00
20696;BME280;10507;52.754;13.040;2023-11-18T04:03:45;101775.16;;;4.01;100.00
20696;BME280;10507;52.754;13.040;2023-11-18T04:06:17;101798.97;;;4.00;100.00
20696;BME280;10507;52.754;13.040;2023-11-18T04:08:54;101847.38;;;4.03;100.00
20696;BME280;10507;52.754;13.040;2023-11-18T04:11:30;101880.84;;;4.07;100.00
20696;BME280;10507;52.754;13.040;2023-11-18T04:14:12;101903.75;;;4.11;100.00
20696;BME280;10507;52.754;13.040;2023-11-18T04:16:45;101899.38;;;4.10;100.00
20696;BME280;10507;52.754;13.040;2023-11-18T04:19:29;101891.41;;;4.06;100.00
20696;BME280;10507;52.754;13.040;2023-11-18T04:22:00;101885.31;;;3.98;100.00
20696;BME280;10507;52.754;13.040;2023-11-18T04:24:33;101903.81;;;3.99;100.00
20696;BME280;10507;52.754;13.040;2023-11-18T04:27:11;101924.06;;;4.02;100.00
20696;BME280;10507;52.754;13.040;2023-11-18T04:29:48;101912.59;;;3.98;100.00
20696;BME280;10507;52.754;13.040;2023-11-18T04:32:23;101905.56;;;3.92;100.00
20696;BME280;10507;52.754;13.040;2023-11-18T04:35:07;101916.13;;;3.94;100.00
20696;BME280;10507;52.754;13.040;2023-11-18T04:37:43;101938.16;;;3.99;100.00
20696;BME280;10507;52.754;13.040;2023-11-18T04:40:19;101903.81;;;3.87;100.00
20696;BME280;10507;52.754;13.040;2023-11-18T04:42:50;101912.63;;;3.86;100.00
20696;BME280;10507;52.754;13.040;2023-11-18T04:45:21;101887.09;;;3.75;100.00
20696;BME280;10507;52.754;13.040;2023-11-18T04:47:53;101873.03;;;3.69;100.00
20696;BME280;10507;52.754;13.040;2023-11-18T04:50:29;101844.00;;;3.53;100.00
20696;BME280;10507;52.754;13.040;2023-11-18T04:53:07;101835.22;;;3.44;100.00
20696;BME280;10507;52.754;13.040;2023-11-18T04:55:40;101834.34;;;3.37;100.00
20696;BME280;10507;52.754;13.040;2023-11-18T04:58:13;101854.59;;;3.33;100.00
20696;BME280;10507;52.754;13.040;2023-11-18T05:00:46;101862.53;;;3.30;100.00
20696;BME280;10507;52.754;13.040;2023-11-18T05:03:17;101870.44;;;3.30;100.00
20696;BME280;10507;52.754;13.040;2023-11-18T05:05:48;101908.28;;;3.39;100.00
20696;BME280;10507;52.754;13.040;2023-11-18T05:08:24;101935.53;;;3.47;100.00
20696;BME280;10507;52.754;13.040;2023-11-18T05:10:55;101954.03;;;3.50;100.00
20696;BME280;10507;52.754;13.040;2023-11-18T05:13:25;101965.47;;;3.55;100.00
20696;BME280;10507;52.754;13.040;2023-11-18T05:15:56;101967.22;;;3.56;100.00
20696;BME280;10507;52.754;13.040;2023-11-18T05:18:30;101970.78;;;3.61;100.00
20696;BME280;10507;52.754;13.040;2023-11-18T05:21:13;101973.41;;;3.66;100.00
20696;BME280;10507;52.754;13.040;2023-11-18T05:24:05;101960.19;;;3.66;100.00
20696;BME280;10507;52.754;13.040;2023-11-18T05:26:37;101947.88;;;3.62;100.00
20696;BME280;10507;52.754;13.040;2023-11-18T05:29:14;101947.00;;;3.61;100.00
20696;BME280;10507;52.754;13.040;2023-11-18T05:31:58;101972.53;;;3.73;100.00
20696;BME280;10507;52.754;13.040;2023-11-18T05:34:34;101973.38;;;3.73;100.00
20696;BME280;10507;52.754;13.040;2023-11-18T05:37:10;101981.31;;;3.80;100.00
20696;BME280;10507;52.754;13.040;2023-11-18T05:39:45;101974.25;;;3.85;100.00
20696;BME280;10507;52.754;13.040;2023-11-18T05:42:20;101958.41;;;3.83;100.00
20696;BME280;10507;52.754;13.040;2023-11-18T05:45:10;101956.66;;;3.87;100.00
20696;BME280;10507;52.754;13.040;2023-11-18T05:47:57;101961.94;;;3.93;100.00
20696;BME280;10507;52.754;13.040;2023-11-18T05:50:26;101968.06;;;3.96;100.00
20696;BME280;10507;52.754;13.040;2023-11-18T05:53:03;101955.75;;;3.95;100.00
20696;BME280;10507;52.754;13.040;2023-11-18T05:55:36;101954.88;;;3.98;100.00
20696;BME280;10507;52.754;13.040;2023-11-18T05:58:10;101931.97;;;3.99;100.00
20696;BME280;10507;52.754;13.040;2023-11-18T06:00:50;101925.81;;;3.95;100.00
20696;BME280;10507;52.754;13.040;2023-11-18T06:03:23;101935.50;;;4.02;100.00
20696;BME280;10507;52.754;13.040;2023-11-18T06:05:57;101922.28;;;3.98;100.00
20696;BME280;10507;52.754;13.040;2023-11-18T06:08:28;101916.13;;;3.94;100.00
20696;BME280;10507;52.754;13.040;2023-11-18T06:10:59;101935.50;;;3.96;100.00
20696;BME280;10507;52.754;13.040;2023-11-18T06:13:40;101945.19;;;4.00;100.00
20696;BME280;10507;52.754;13.040;2023-11-18T06:16:50;101967.19;;;4.05;100.00
20696;BME280;10507;52.754;13.040;2023-11-18T06:19:21;101968.97;;;4.06;100.00
20696;BME280;10507;52.754;13.040;2023-11-18T06:21:55;101975.13;;;4.08;100.00
20696;BME280;10507;52.754;13.040;2023-11-18T06:24:28;101989.19;;;4.12;100.00
20696;BME280;10507;52.754;13.040;2023-11-18T06:26:59;102007.69;;;4.13;100.00
20696;BME280;10507;52.754;13.040;2023-11-18T06:29:32;101983.91;;;4.07;100.00
20696;BME280;10507;52.754;13.040;2023-11-18T06:32:32;102010.34;;;4.20;100.00
20696;BME280;10507;52.754;13.040;2023-11-18T06:35:07;101993.59;;;4.14;100.00
20696;BME280;10507;52.754;13.040;2023-11-18T06:37:39;101998.88;;;4.16;100.00
20696;BME280;10507;52.754;13.040;2023-11-18T06:40:20;102022.66;;;4.21;100.00
20696;BME280;10507;52.754;13.040;2023-11-18T06:42:52;102044.69;;;4.26;100.00
20696;BME280;10507;52.754;13.040;2023-11-18T06:45:36;102059.66;;;4.31;100.00
20696;BME280;10507;52.754;13.040;2023-11-18T06:48:13;102065.81;;;4.36;100.00
20696;BME280;10507;52.754;13.040;2023-11-18T06:50:48;102043.81;;;4.31;100.00
20696;BME280;10507;52.754;13.040;2023-11-18T06:53:31;102051.72;;;4.39;100.00
20696;BME280;10507;52.754;13.040;2023-11-18T06:56:01;102032.31;;;4.37;100.00
20696;BME280;10507;52.754;13.040;2023-11-18T06:58:30;102038.47;;;4.45;100.00
20696;BME280;10507;52.754;13.040;2023-11-18T07:00:58;102042.91;;;4.46;100.00
20696;BME280;10507;52.754;13.040;2023-11-18T07:03:38;102039.34;;;4.50;100.00
20696;BME280;10507;52.754;13.040;2023-11-18T07:06:16;102048.16;;;4.58;100.00
20696;BME280;10507;52.754;13.040;2023-11-18T07:09:00;102041.09;;;4.61;100.00
20696;BME280;10507;52.754;13.040;2023-11-18T07:11:32;102019.94;;;4.61;100.00
20696;BME280;10507;52.754;13.040;2023-11-18T07:14:03;101991.72;;;4.56;100.00
20696;BME280;10507;52.754;13.040;2023-11-18T07:16:32;101973.22;;;4.50;100.00
20696;BME280;10507;52.754;13.040;2023-11-18T07:19:00;101990.84;;;4.54;100.00
20696;BME280;10507;52.754;13.040;2023-11-18T07:21:30;101998.78;;;4.57;100.00
20696;BME280;10507;52.754;13.040;2023-11-18T07:24:02;102025.22;;;4.67;100.00
20696;BME280;10507;52.754;13.040;2023-11-18T07:26:42;102032.22;;;4.72;100.00
20696;BME280;10507;52.754;13.040;2023-11-18T07:29:18;102014.59;;;4.70;100.00
20696;BME280;10507;52.754;13.040;2023-11-18T07:31:47;102011.06;;;4.75;100.00
20696;BME280;10507;52.754;13.040;2023-11-18T07:34:19;102012.81;;;4.78;100.00
20696;BME280;10507;52.754;13.040;2023-11-18T07:36:48;102007.50;;;4.87;100.00
20696;BME280;10507;52.754;13.040;2023-11-18T07:39:19;102013.63;;;4.94;100.00
20696;BME280;10507;52.754;13.040;2023-11-18T07:42:00;102003.03;;;4.97;100.00
20696;BME280;10507;52.754;13.040;2023-11-18T07:44:35;102003.00;;;5.02;100.00
20696;BME280;10507;52.754;13.040;2023-11-18T07:47:09;101995.06;;;5.05;100.00
20696;BME280;10507;52.754;13.040;2023-11-18T07:49:40;101961.53;;;5.00;100.00
20696;BME280;10507;52.754;13.040;2023-11-18T07:52:23;101961.53;;;5.07;100.00
20696;BME280;10507;52.754;13.040;2023-11-18T07:55:01;101969.44;;;5.11;100.00
20696;BME280;10507;52.754;13.040;2023-11-18T07:57:36;101955.28;;;5.14;100.00
20696;BME280;10507;52.754;13.040;2023-11-18T08:00:14;101949.09;;;5.16;100.00
20696;BME280;10507;52.754;13.040;2023-11-18T08:02:53;101945.53;;;5.17;100.00
20696;BME280;10507;52.754;13.040;2023-11-18T08:05:58;101941.13;;;5.19;100.00
20696;BME280;10507;52.754;13.040;2023-11-18T08:08:28;101937.59;;;5.20;100.00
20696;BME280;10507;52.754;13.040;2023-11-18T08:11:36;101949.91;;;5.29;100.00
20696;BME280;10507;52.754;13.040;2023-11-18T08:14:07;101935.78;;;5.24;100.00
20696;BME280;10507;52.754;13.040;2023-11-18T08:16:36;101904.06;;;5.23;100.00
20696;BME280;10507;52.754;13.040;2023-11-18T08:19:08;101879.41;;;5.13;100.00
20696;BME280;10507;52.754;13.040;2023-11-18T08:21:37;101911.09;;;5.22;100.00
20696;BME280;10507;52.754;13.040;2023-11-18T08:24:07;101902.28;;;5.23;100.00
20696;BME280;10507;52.754;13.040;2023-11-18T08:26:40;101903.16;;;5.25;100.00
20696;BME280;10507;52.754;13.040;2023-11-18T08:29:29;101862.63;;;5.14;100.00
20696;BME280;10507;52.754;13.040;2023-11-18T08:32:00;101877.59;;;5.19;100.00
20696;BME280;10507;52.754;13.040;2023-11-18T08:34:28;101878.44;;;5.21;100.00
20696;BME280;10507;52.754;13.040;2023-11-18T08:36:57;101907.53;;;5.28;100.00
20696;BME280;10507;52.754;13.040;2023-11-18T08:39:26;101936.59;;;5.38;100.00
20696;BME280;10507;52.754;13.040;2023-11-18T08:42:03;101940.03;;;5.50;100.00
20696;BME280;10507;52.754;13.040;2023-11-18T08:44:36;101903.78;;;5.53;100.00
20696;BME280;10507;52.754;13.040;2023-11-18T08:47:06;101905.47;;;5.62;100.00
20696;BME280;10507;52.754;13.040;2023-11-18T08:49:35;101893.13;;;5.59;100.00
20696;BME280;10507;52.754;13.040;2023-11-18T08:52:05;101912.44;;;5.71;100.00
20696;BME280;10507;52.754;13.040;2023-11-18T08:54:44;101893.94;;;5.66;100.00
20696;BME280;10507;52.754;13.040;2023-11-18T08:57:37;101898.34;;;5.67;100.00
20696;BME280;10507;52.754;13.040;2023-11-18T09:00:25;101899.16;;;5.74;100.00
20696;BME280;10507;52.754;13.040;2023-11-18T09:03:11;101885.03;;;5.75;100.00
20696;BME280;10507;52.754;13.040;2023-11-18T09:05:51;101887.69;;;5.76;100.00
20696;BME280;10507;52.754;13.040;2023-11-18T09:08:36;101900.78;;;5.89;100.00
20696;BME280;10507;52.754;13.040;2023-11-18T09:11:32;101895.50;;;5.89;100.00
20696;BME280;10507;52.754;13.040;2023-11-18T09:14:11;101897.19;;;5.97;100.00
20696;BME280;10507;52.754;13.040;2023-11-18T09:17:04;101880.44;;;5.95;100.00
20696;BME280;10507;52.754;13.040;2023-11-18T09:20:12;101868.91;;;6.01;100.00
20696;BME280;10507;52.754;13.040;2023-11-18T09:23:14;101838.91;;;5.93;100.00
20696;BME280;10507;52.754;13.040;2023-11-18T09:25:50;101855.66;;;5.98;100.00
20696;BME280;10507;52.754;13.040;2023-11-18T09:28:24;101839.75;;;5.99;100.00
20696;BME280;10507;52.754;13.040;2023-11-18T09:30:55;101831.78;;;5.99;100.00
20696;BME280;10507;52.754;13.040;2023-11-18T09:34:07;101816.75;;;6.00;100.00
20696;BME280;10507;52.754;13.040;2023-11-18T09:37:16;101819.34;;;6.03;100.00
20696;BME280;10507;52.754;13.040;2023-11-18T09:39:47;101797.38;;;5.93;100.00
20696;BME280;10507;52.754;13.040;2023-11-18T09:42:23;101816.75;;;5.98;100.00
20696;BME280;10507;52.754;13.040;2023-11-18T09:44:57;101820.31;;;5.99;100.00
20696;BME280;10507;52.754;13.040;2023-11-18T09:47:46;101788.53;;;5.97;100.00
20696;BME280;10507;52.754;13.040;2023-11-18T09:50:51;101809.66;;;6.02;100.00
20696;BME280;10507;52.754;13.040;2023-11-18T09:53:42;101809.66;;;6.03;100.00
20696;BME280;10507;52.754;13.040;2023-11-18T09:56:28;101834.25;;;6.15;100.00
20696;BME280;10507;52.754;13.040;2023-11-18T09:59:23;101805.94;;;6.17;100.00
20696;BME280;10507;52.754;13.040;2023-11-18T10:02:27;101740.75;;;6.00;100.00
20696;BME280;10507;52.754;13.040;2023-11-18T10:05:30;101736.38;;;5.96;100.00
20696;BME280;10507;52.754;13.040;2023-11-18T10:08:15;101737.22;;;6.00;100.00
20696;BME280;10507;52.754;13.040;2023-11-18T10:10:59;101685.31;;;5.83;100.00
20696;BME280;10507;52.754;13.040;2023-11-18T10:13:53;101761.00;;;6.08;100.00
20696;BME280;10507;52.754;13.040;2023-11-18T10:16:35;101721.25;;;6.04;100.00
20696;BME280;10507;52.754;13.040;2023-11-18T10:19:13;101723.00;;;6.07;100.00
20696;BME280;10507;52.754;13.040;2023-11-18T10:21:53;101797.81;;;6.29;100.00
20696;BME280;10507;52.754;13.040;2023-11-18T10:24:44;101773.88;;;6.35;100.00
20696;BME280;10507;52.754;13.040;2023-11-18T10:27:16;101764.84;;;6.47;100.00
20696;BME280;10507;52.754;13.040;2023-11-18T10:29:49;101725.06;;;6.47;100.00
20696;BME280;10507;52.754;13.040;2023-11-18T10:32:19;101719.59;;;6.56;100.00
20696;BME280;10507;52.754;13.040;2023-11-18T10:34:55;101664.97;;;6.46;100.00
20696;BME280;10507;52.754;13.040;2023-11-18T10:37:27;101649.16;;;6.38;100.00
20696;BME280;10507;52.754;13.040;2023-11-18T10:40:34;101632.38;;;6.38;100.00
20696;BME280;10507;52.754;13.040;2023-11-18T10:43:17;101612.97;;;6.34;100.00
20696;BME280;10507;52.754;13.040;2023-11-18T10:45:46;101604.13;;;6.35;99.53
20696;BME280;10507;52.754;13.040;2023-11-18T10:48:17;101600.72;;;6.27;100.00
20696;BME280;10507;52.754;13.040;2023-11-18T10:50:58;101624.41;;;6.38;99.56
20696;BME280;10507;52.754;13.040;2023-11-18T10:53:32;101666.69;;;6.49;99.72
20696;BME280;10507;52.754;13.040;2023-11-18T10:56:25;101603.13;;;6.41;99.55
20696;BME280;10507;52.754;13.040;2023-11-18T10:58:59;101626.00;;;6.48;99.94
20696;BME280;10507;52.754;13.040;2023-11-18T11:01:41;101557.34;;;6.30;98.96
20696;BME280;10507;52.754;13.040;2023-11-18T11:04:42;101539.78;;;6.24;98.66
20696;BME280;10507;52.754;13.040;2023-11-18T11:07:15;101521.34;;;6.16;99.12
20696;BME280;10507;52.754;13.040;2023-11-18T11:09:51;101557.56;;;6.17;99.33
20696;BME280;10507;52.754;13.040;2023-11-18T11:12:33;101568.94;;;6.24;98.75
20696;BME280;10507;52.754;13.040;2023-11-18T11:15:18;101506.28;;;6.18;98.72
20696;BME280;10507;52.754;13.040;2023-11-18T11:18:08;101496.63;;;6.14;98.80
20696;BME280;10507;52.754;13.040;2023-11-18T11:21:14;101535.38;;;6.23;99.48
20696;BME280;10507;52.754;13.040;2023-11-18T11:23:54;101490.53;;;6.11;98.61
20696;BME280;10507;52.754;13.040;2023-11-18T11:26:34;101481.81;;;6.04;98.59
20696;BME280;10507;52.754;13.040;2023-11-18T11:29:38;101498.53;;;6.08;98.73
20696;BME280;10507;52.754;13.040;2023-11-18T11:32:16;101566.28;;;6.26;99.27
20696;BME280;10507;52.754;13.040;2023-11-18T11:34:53;101550.38;;;6.26;99.14
20696;BME280;10507;52.754;13.040;2023-11-18T11:37:29;101607.53;;;6.43;99.54
20696;BME280;10507;52.754;13.040;2023-11-18T11:40:12;101629.28;;;6.62;98.37
20696;BME280;10507;52.754;13.040;2023-11-18T11:42:52;101584.00;;;6.72;97.70
20696;BME280;10507;52.754;13.040;2023-11-18T11:45:24;101508.72;;;6.76;96.76
20696;BME280;10507;52.754;13.040;2023-11-18T11:48:03;101417.78;;;6.68;95.83
20696;BME280;10507;52.754;13.040;2023-11-18T11:50:53;101340.19;;;6.56;95.49
20696;BME280;10507;52.754;13.040;2023-11-18T11:53:26;101348.16;;;6.56;95.76
20696;BME280;10507;52.754;13.040;2023-11-18T11:56:01;101362.25;;;6.60;95.09
20696;BME280;10507;52.754;13.040;2023-11-18T11:58:34;101407.97;;;6.73;95.10
20696;BME280;10507;52.754;13.040;2023-11-18T12:01:16;101347.06;;;6.66;94.62
20696;BME280;10507;52.754;13.040;2023-11-18T12:04:03;101316.56;;;6.45;95.86
20696;BME280;10507;52.754;13.040;2023-11-18T12:06:42;101373.81;;;6.56;96.03
20696;BME280;10507;52.754;13.040;2023-11-18T12:09:17;101334.25;;;6.45;96.10
20696;BME280;10507;52.754;13.040;2023-11-18T12:11:55;101359.91;;;6.44;96.33
20696;BME280;10507;52.754;13.040;2023-11-18T12:14:57;101353.66;;;6.49;95.68
20696;BME280;10507;52.754;13.040;2023-11-18T12:21:55;101319.16;;;6.49;95.43
20696;BME280;10507;52.754;13.040;2023-11-18T12:24:23;101302.41;;;6.47;95.20
20696;BME280;10507;52.754;13.040;2023-11-18T12:26:59;101311.16;;;6.50;95.45
20696;BME280;10507;52.754;13.040;2023-11-18T12:29:31;101283.97;;;6.40;95.57
20696;BME280;10507;52.754;13.040;2023-11-18T12:32:00;101338.78;;;6.41;96.36
20696;BME280;10507;52.754;13.040;2023-11-18T12:34:56;101349.34;;;6.43;96.83
20696;BME280;10507;52.754;13.040;2023-11-18T12:38:13;101302.50;;;6.42;96.29
20696;BME280;10507;52.754;13.040;2023-11-18T12:40:55;101251.44;;;6.32;95.81
20696;BME280;10507;52.754;13.040;2023-11-18T12:46:57;101311.75;;;6.22;95.97
20696;BME280;10507;52.754;13.040;2023-11-18T12:49:41;101309.97;;;6.23;96.99
20696;BME280;10507;52.754;13.040;2023-11-18T12:52:11;101333.69;;;6.31;96.29
20696;BME280;10507;52.754;13.040;2023-11-18T12:54:48;101314.19;;;6.33;96.25
20696;BME280;10507;52.754;13.040;2023-11-18T12:57:26;101293.91;;;6.31;96.27
20696;BME280;10507;52.754;13.040;2023-11-18T13:00:12;101267.28;;;6.37;95.46
20696;BME280;10507;52.754;13.040;2023-11-18T13:02:46;101261.03;;;6.38;95.45
20696;BME280;10507;52.754;13.040;2023-11-18T13:05:25;101207.34;;;6.28;95.31
20696;BME280;10507;52.754;13.040;2023-11-18T13:08:05;101248.72;;;6.37;95.72
20696;BME280;10507;52.754;13.040;2023-11-18T13:16:47;101277.59;;;6.49;95.01
20696;BME280;10507;52.754;13.040;2023-11-18T13:19:23;101193.81;;;6.39;94.82
20696;BME280;10507;52.754;13.040;2023-11-18T13:21:59;101248.41;;;6.49;95.22
20696;BME280;10507;52.754;13.040;2023-11-18T13:25:06;101231.56;;;6.50;94.74
20696;BME280;10507;52.754;13.040;2023-11-18T13:27:49;101213.81;;;6.54;94.83
20696;BME280;10507;52.754;13.040;2023-11-18T13:30:32;101192.94;;;6.40;94.85
20696;BME280;10507;52.754;13.040;2023-11-18T13:33:15;101259.94;;;6.48;95.97
20696;BME280;10507;52.754;13.040;2023-11-18T13:35:43;101258.03;;;6.53;96.22
20696;BME280;10507;52.754;13.040;2023-11-18T13:38:19;101289.78;;;6.56;95.83
20696;BME280;10507;52.754;13.040;2023-11-18T13:40:51;101224.41;;;6.55;95.13
20696;BME280;10507;52.754;13.040;2023-11-18T13:43:55;101152.28;;;6.39;95.09
20696;BME280;10507;52.754;13.040;2023-11-18T13:46:33;101154.72;;;6.47;94.37
20696;BME280;10507;52.754;13.040;2023-11-18T13:49:20;101127.22;;;6.51;94.07
20696;BME280;10507;52.754;13.040;2023-11-18T13:52:06;101031.13;;;6.41;92.40
20696;BME280;10507;52.754;13.040;2023-11-18T13:54:47;100993.69;;;6.19;92.52
20696;BME280;10507;52.754;13.040;2023-11-18T13:57:31;101009.16;;;6.02;93.31
20696;BME280;10507;52.754;13.040;2023-11-18T14:00:10;101019.97;;;5.91;93.86
20696;BME280;10507;52.754;13.040;2023-11-18T14:02:49;101037.31;;;5.69;93.98
20696;BME280;10507;52.754;13.040;2023-11-18T14:05:25;101075.69;;;5.49;94.84
20696;BME280;10507;52.754;13.040;2023-11-18T14:07:58;101112.13;;;5.39;95.80